Pagrindinis puslapis
METAR-TAF:

METAR-TAF

Oro uostai :

Urfa, Turkija

platuma: 37-27N, ilguma: 38-54E, Aukštis: 823 m

Dabartinis oras

Ataskaita buvo paskelbta 17 minutes, ne 13:50 UTC
Vėjas 10 kt iš Pietvakarių
Temperatūra 27°C
Drėgmė 30%
Slėgis 1010 hPa
Matomumas 10 km arba daugiau
nėra debesų žemiau 1500 m ir nėra kamuolinių lietaus debesų

METAR: LTCS 181350Z 22010KT CAVOK 27/08 Q1010 RMK RWY22 18010KT 2AC100

Laikas: 17:07 (14:07 UTC)

Prognozė

Ataskaita buvo paskelbta 3 valandos ir 27 minutes, ne 10:40 UTC
Prognozė galioja nuo 18 metu 12 UTC su 19 metu 12 UTC
Vėjas 12 kt iš Pietų/Pietryčių
Matomumas 10 km arba daugiau
Mažai debesys ne aukštis 4000 ft
Išsisklaidę debesys ne aukštis 10000 ft
Laikinai
nuo 18 metu 16 UTC su 18 metu 19 UTC
Vėjas 15 kt iš Pietryčių su gūsio iki 25 kt
Tapsmas
nuo 18 metu 20 UTC su 18 metu 24 UTC
Vėjas 6 kt iš Šiaurės/Šiaurės Vakarų
Matomumas 10 km arba daugiau
nėra debesų žemiau 1500 m ir nėra kamuolinių lietaus debesų

TAF: LTCS 181040Z 1812/1912 16012KT 9999 FEW040 SCT100 TEMPO 1816/1819 13015G25KT BECMG 1820/1824 34006KT CAVOK

Orai ataskaitas ir orų prognozės (METAR, TAF).

turimą stotys yra geltonos ir raudonos taškus žemėlapyje.

Perkelti pele per norėdami pamatyti stoties vardą.

Tada spustelėkite, norėdami matyti oro stebėjimo ir prognozės.

Norėdami pakeisti žemėlapį: spustelėkite ant žalios mygtukų su juodo kryžiaus žemyn,; žalią mygtuką su brūkšneliu, jei norite nutolinti; arba žalių rodyklių gretimoms žemėlapius.


METAR-TAF: